sensor_id;sensor_type;location;lat;lon;timestamp;P1;durP1;ratioP1;P2;durP2;ratioP2
1262;SDS011;62267;50.112;8.704;2023-04-15T00:01:36;10.33;;;8.50;;
1262;SDS011;62267;50.112;8.704;2023-04-15T00:04:04;10.40;;;8.80;;
1262;SDS011;62267;50.112;8.704;2023-04-15T00:06:32;11.77;;;8.40;;
1262;SDS011;62267;50.112;8.704;2023-04-15T00:09:01;12.57;;;9.93;;
1262;SDS011;62267;50.112;8.704;2023-04-15T00:11:29;10.53;;;8.53;;
1262;SDS011;62267;50.112;8.704;2023-04-15T00:13:57;9.03;;;8.20;;
1262;SDS011;62267;50.112;8.704;2023-04-15T00:16:25;9.43;;;7.47;;
1262;SDS011;62267;50.112;8.704;2023-04-15T00:18:53;13.40;;;9.53;;
1262;SDS011;62267;50.112;8.704;2023-04-15T00:21:22;11.40;;;9.03;;
1262;SDS011;62267;50.112;8.704;2023-04-15T00:23:50;8.17;;;7.30;;
1262;SDS011;62267;50.112;8.704;2023-04-15T00:26:19;9.00;;;7.90;;
1262;SDS011;62267;50.112;8.704;2023-04-15T00:28:48;10.37;;;8.57;;
1262;SDS011;62267;50.112;8.704;2023-04-15T00:31:15;9.60;;;8.20;;
1262;SDS011;62267;50.112;8.704;2023-04-15T00:33:44;8.87;;;7.40;;
1262;SDS011;62267;50.112;8.704;2023-04-15T00:36:14;9.03;;;8.10;;
1262;SDS011;62267;50.112;8.704;2023-04-15T00:38:41;14.10;;;8.33;;
1262;SDS011;62267;50.112;8.704;2023-04-15T00:41:09;10.33;;;7.83;;
1262;SDS011;62267;50.112;8.704;2023-04-15T00:43:36;8.20;;;7.40;;
1262;SDS011;62267;50.112;8.704;2023-04-15T00:46:04;8.80;;;7.90;;
1262;SDS011;62267;50.112;8.704;2023-04-15T00:48:32;12.53;;;8.10;;
1262;SDS011;62267;50.112;8.704;2023-04-15T00:51:00;8.30;;;7.43;;
1262;SDS011;62267;50.112;8.704;2023-04-15T00:53:28;8.47;;;7.67;;
1262;SDS011;62267;50.112;8.704;2023-04-15T00:55:55;8.47;;;7.20;;
1262;SDS011;62267;50.112;8.704;2023-04-15T00:58:23;8.47;;;7.63;;
1262;SDS011;62267;50.112;8.704;2023-04-15T01:00:52;10.40;;;7.83;;
1262;SDS011;62267;50.112;8.704;2023-04-15T01:03:21;10.53;;;7.80;;
1262;SDS011;62267;50.112;8.704;2023-04-15T01:05:48;7.33;;;6.63;;
1262;SDS011;62267;50.112;8.704;2023-04-15T01:08:16;12.93;;;7.73;;
1262;SDS011;62267;50.112;8.704;2023-04-15T01:10:44;10.43;;;8.33;;
1262;SDS011;62267;50.112;8.704;2023-04-15T01:13:11;10.13;;;7.27;;
1262;SDS011;62267;50.112;8.704;2023-04-15T01:15:39;8.60;;;7.40;;
1262;SDS011;62267;50.112;8.704;2023-04-15T01:18:07;9.77;;;7.93;;
1262;SDS011;62267;50.112;8.704;2023-04-15T01:20:36;10.13;;;8.80;;
1262;SDS011;62267;50.112;8.704;2023-04-15T01:23:04;8.50;;;6.97;;
1262;SDS011;62267;50.112;8.704;2023-04-15T01:25:32;8.73;;;7.73;;
1262;SDS011;62267;50.112;8.704;2023-04-15T01:28:00;7.70;;;6.87;;
1262;SDS011;62267;50.112;8.704;2023-04-15T01:30:33;8.83;;;7.93;;
1262;SDS011;62267;50.112;8.704;2023-04-15T01:33:01;7.67;;;6.87;;
1262;SDS011;62267;50.112;8.704;2023-04-15T01:35:47;7.90;;;7.10;;
1262;SDS011;62267;50.112;8.704;2023-04-15T01:38:15;9.70;;;7.23;;
1262;SDS011;62267;50.112;8.704;2023-04-15T01:40:43;7.97;;;6.90;;
1262;SDS011;62267;50.112;8.704;2023-04-15T01:43:11;8.43;;;7.27;;
1262;SDS011;62267;50.112;8.704;2023-04-15T01:45:41;8.60;;;7.20;;
1262;SDS011;62267;50.112;8.704;2023-04-15T01:48:08;8.30;;;7.40;;
1262;SDS011;62267;50.112;8.704;2023-04-15T01:50:37;8.20;;;6.60;;
1262;SDS011;62267;50.112;8.704;2023-04-15T01:53:05;10.70;;;7.50;;
1262;SDS011;62267;50.112;8.704;2023-04-15T01:55:35;9.30;;;7.60;;
1262;SDS011;62267;50.112;8.704;2023-04-15T01:58:02;8.30;;;7.40;;
1262;SDS011;62267;50.112;8.704;2023-04-15T02:00:30;10.80;;;8.20;;
1262;SDS011;62267;50.112;8.704;2023-04-15T02:02:58;10.47;;;7.83;;
1262;SDS011;62267;50.112;8.704;2023-04-15T02:05:27;9.43;;;8.53;;
1262;SDS011;62267;50.112;8.704;2023-04-15T02:07:56;9.87;;;8.03;;
1262;SDS011;62267;50.112;8.704;2023-04-15T02:10:23;10.60;;;7.80;;
1262;SDS011;62267;50.112;8.704;2023-04-15T02:12:51;9.50;;;8.67;;
1262;SDS011;62267;50.112;8.704;2023-04-15T02:15:20;8.87;;;7.60;;
1262;SDS011;62267;50.112;8.704;2023-04-15T02:17:51;9.33;;;7.93;;
1262;SDS011;62267;50.112;8.704;2023-04-15T02:20:21;11.07;;;7.90;;
1262;SDS011;62267;50.112;8.704;2023-04-15T02:22:49;8.00;;;7.20;;
1262;SDS011;62267;50.112;8.704;2023-04-15T02:25:17;10.47;;;7.93;;
1262;SDS011;62267;50.112;8.704;2023-04-15T02:27:46;8.57;;;7.20;;
1262;SDS011;62267;50.112;8.704;2023-04-15T02:30:16;8.40;;;6.90;;
1262;SDS011;62267;50.112;8.704;2023-04-15T02:32:44;8.10;;;7.27;;
1262;SDS011;62267;50.112;8.704;2023-04-15T02:35:12;9.43;;;7.77;;
1262;SDS011;62267;50.112;8.704;2023-04-15T02:37:39;9.00;;;7.07;;
1262;SDS011;62267;50.112;8.704;2023-04-15T02:40:09;8.27;;;7.10;;
1262;SDS011;62267;50.112;8.704;2023-04-15T02:42:38;8.60;;;7.80;;
1262;SDS011;62267;50.112;8.704;2023-04-15T02:45:08;9.23;;;7.90;;
1262;SDS011;62267;50.112;8.704;2023-04-15T02:47:41;8.57;;;7.10;;
1262;SDS011;62267;50.112;8.704;2023-04-15T02:50:10;10.03;;;7.63;;
1262;SDS011;62267;50.112;8.704;2023-04-15T02:52:40;9.00;;;7.43;;
1262;SDS011;62267;50.112;8.704;2023-04-15T02:55:08;9.27;;;8.27;;
1262;SDS011;62267;50.112;8.704;2023-04-15T02:57:36;9.03;;;7.73;;
1262;SDS011;62267;50.112;8.704;2023-04-15T03:00:06;16.63;;;8.60;;
1262;SDS011;62267;50.112;8.704;2023-04-15T03:02:39;11.50;;;8.00;;
1262;SDS011;62267;50.112;8.704;2023-04-15T03:05:12;8.77;;;7.73;;
1262;SDS011;62267;50.112;8.704;2023-04-15T03:07:47;13.13;;;9.10;;
1262;SDS011;62267;50.112;8.704;2023-04-15T03:10:14;10.13;;;8.60;;
1262;SDS011;62267;50.112;8.704;2023-04-15T03:12:42;12.20;;;8.37;;
1262;SDS011;62267;50.112;8.704;2023-04-15T03:15:15;11.00;;;8.97;;
1262;SDS011;62267;50.112;8.704;2023-04-15T03:17:47;9.53;;;8.60;;
1262;SDS011;62267;50.112;8.704;2023-04-15T03:20:20;13.23;;;10.03;;
1262;SDS011;62267;50.112;8.704;2023-04-15T03:22:47;16.37;;;9.10;;
1262;SDS011;62267;50.112;8.704;2023-04-15T03:25:18;12.07;;;8.83;;
1262;SDS011;62267;50.112;8.704;2023-04-15T03:27:46;12.70;;;10.67;;
1262;SDS011;62267;50.112;8.704;2023-04-15T03:30:15;13.90;;;9.50;;
1262;SDS011;62267;50.112;8.704;2023-04-15T03:32:42;9.73;;;8.70;;
1262;SDS011;62267;50.112;8.704;2023-04-15T03:35:10;11.00;;;8.97;;
1262;SDS011;62267;50.112;8.704;2023-04-15T03:37:41;12.67;;;9.40;;
1262;SDS011;62267;50.112;8.704;2023-04-15T03:40:08;15.40;;;9.20;;
1262;SDS011;62267;50.112;8.704;2023-04-15T03:42:36;12.53;;;11.23;;
1262;SDS011;62267;50.112;8.704;2023-04-15T03:45:04;11.47;;;9.10;;
1262;SDS011;62267;50.112;8.704;2023-04-15T03:47:31;14.87;;;9.77;;
1262;SDS011;62267;50.112;8.704;2023-04-15T03:50:01;14.03;;;9.03;;
1262;SDS011;62267;50.112;8.704;2023-04-15T03:52:28;14.90;;;10.47;;
1262;SDS011;62267;50.112;8.704;2023-04-15T03:54:56;19.33;;;9.03;;
1262;SDS011;62267;50.112;8.704;2023-04-15T03:57:23;13.40;;;10.93;;
1262;SDS011;62267;50.112;8.704;2023-04-15T03:59:51;11.80;;;9.60;;
1262;SDS011;62267;50.112;8.704;2023-04-15T04:02:19;9.73;;;8.73;;
1262;SDS011;62267;50.112;8.704;2023-04-15T04:04:47;11.30;;;9.30;;
1262;SDS011;62267;50.112;8.704;2023-04-15T04:07:15;10.00;;;8.67;;
1262;SDS011;62267;50.112;8.704;2023-04-15T04:09:43;15.00;;;10.83;;
1262;SDS011;62267;50.112;8.704;2023-04-15T04:12:12;14.20;;;9.33;;
1262;SDS011;62267;50.112;8.704;2023-04-15T04:14:39;11.40;;;10.30;;
1262;SDS011;62267;50.112;8.704;2023-04-15T04:17:07;10.03;;;8.80;;
1262;SDS011;62267;50.112;8.704;2023-04-15T04:19:34;16.47;;;9.57;;
1262;SDS011;62267;50.112;8.704;2023-04-15T04:22:02;12.20;;;9.30;;
1262;SDS011;62267;50.112;8.704;2023-04-15T04:24:29;9.60;;;8.60;;
1262;SDS011;62267;50.112;8.704;2023-04-15T04:26:58;11.40;;;10.20;;
1262;SDS011;62267;50.112;8.704;2023-04-15T04:29:28;11.33;;;9.20;;
1262;SDS011;62267;50.112;8.704;2023-04-15T04:31:56;11.37;;;8.80;;
1262;SDS011;62267;50.112;8.704;2023-04-15T04:34:23;14.03;;;10.03;;
1262;SDS011;62267;50.112;8.704;2023-04-15T04:36:51;15.20;;;10.73;;
1262;SDS011;62267;50.112;8.704;2023-04-15T04:39:18;12.83;;;9.70;;
1262;SDS011;62267;50.112;8.704;2023-04-15T04:41:46;15.77;;;9.67;;
1262;SDS011;62267;50.112;8.704;2023-04-15T04:44:13;12.20;;;9.30;;
1262;SDS011;62267;50.112;8.704;2023-04-15T04:46:41;17.50;;;10.67;;
1262;SDS011;62267;50.112;8.704;2023-04-15T04:49:10;11.80;;;8.93;;
1262;SDS011;62267;50.112;8.704;2023-04-15T04:51:37;11.57;;;9.80;;
1262;SDS011;62267;50.112;8.704;2023-04-15T04:54:06;13.73;;;9.83;;
1262;SDS011;62267;50.112;8.704;2023-04-15T04:56:35;11.90;;;8.40;;
1262;SDS011;62267;50.112;8.704;2023-04-15T04:59:04;13.73;;;8.90;;
1262;SDS011;62267;50.112;8.704;2023-04-15T05:01:32;10.80;;;8.90;;
1262;SDS011;62267;50.112;8.704;2023-04-15T05:04:00;9.73;;;8.50;;
1262;SDS011;62267;50.112;8.704;2023-04-15T05:06:31;16.23;;;10.17;;
1262;SDS011;62267;50.112;8.704;2023-04-15T05:08:58;11.20;;;8.20;;
1262;SDS011;62267;50.112;8.704;2023-04-15T05:11:27;12.30;;;9.73;;
1262;SDS011;62267;50.112;8.704;2023-04-15T05:13:55;10.67;;;9.43;;
1262;SDS011;62267;50.112;8.704;2023-04-15T05:16:24;11.80;;;9.27;;
1262;SDS011;62267;50.112;8.704;2023-04-15T05:18:52;9.80;;;8.70;;
1262;SDS011;62267;50.112;8.704;2023-04-15T05:21:20;11.73;;;9.90;;
1262;SDS011;62267;50.112;8.704;2023-04-15T05:23:47;9.23;;;7.93;;
1262;SDS011;62267;50.112;8.704;2023-04-15T05:26:14;12.03;;;8.97;;
1262;SDS011;62267;50.112;8.704;2023-04-15T05:28:42;11.03;;;8.80;;
1262;SDS011;62267;50.112;8.704;2023-04-15T05:31:10;10.10;;;8.37;;
1262;SDS011;62267;50.112;8.704;2023-04-15T05:33:37;11.03;;;8.93;;
1262;SDS011;62267;50.112;8.704;2023-04-15T05:36:04;10.83;;;9.10;;
1262;SDS011;62267;50.112;8.704;2023-04-15T05:38:32;11.93;;;10.00;;
1262;SDS011;62267;50.112;8.704;2023-04-15T05:41:00;11.37;;;8.53;;
1262;SDS011;62267;50.112;8.704;2023-04-15T05:43:27;12.60;;;9.07;;
1262;SDS011;62267;50.112;8.704;2023-04-15T05:45:54;11.77;;;9.37;;
1262;SDS011;62267;50.112;8.704;2023-04-15T05:48:22;13.40;;;9.03;;
1262;SDS011;62267;50.112;8.704;2023-04-15T05:50:49;12.50;;;9.13;;
1262;SDS011;62267;50.112;8.704;2023-04-15T05:53:16;12.87;;;9.20;;
1262;SDS011;62267;50.112;8.704;2023-04-15T05:55:43;13.17;;;9.90;;
1262;SDS011;62267;50.112;8.704;2023-04-15T05:58:11;14.27;;;8.73;;
1262;SDS011;62267;50.112;8.704;2023-04-15T06:00:38;12.97;;;9.03;;
1262;SDS011;62267;50.112;8.704;2023-04-15T06:03:06;20.37;;;11.90;;
1262;SDS011;62267;50.112;8.704;2023-04-15T06:05:34;14.23;;;10.10;;
1262;SDS011;62267;50.112;8.704;2023-04-15T06:08:01;16.53;;;9.00;;
1262;SDS011;62267;50.112;8.704;2023-04-15T06:10:28;15.10;;;12.37;;
1262;SDS011;62267;50.112;8.704;2023-04-15T06:12:56;14.47;;;10.40;;
1262;SDS011;62267;50.112;8.704;2023-04-15T06:15:23;14.07;;;9.40;;
1262;SDS011;62267;50.112;8.704;2023-04-15T06:17:50;12.87;;;9.30;;
1262;SDS011;62267;50.112;8.704;2023-04-15T06:20:18;12.20;;;9.03;;
1262;SDS011;62267;50.112;8.704;2023-04-15T06:22:45;17.63;;;10.40;;
1262;SDS011;62267;50.112;8.704;2023-04-15T06:25:12;13.10;;;10.13;;
1262;SDS011;62267;50.112;8.704;2023-04-15T06:27:41;12.13;;;9.00;;
1262;SDS011;62267;50.112;8.704;2023-04-15T06:30:08;13.80;;;9.33;;
1262;SDS011;62267;50.112;8.704;2023-04-15T06:32:36;11.83;;;9.23;;
1262;SDS011;62267;50.112;8.704;2023-04-15T06:35:04;9.47;;;8.20;;
1262;SDS011;62267;50.112;8.704;2023-04-15T06:37:31;11.23;;;8.63;;
1262;SDS011;62267;50.112;8.704;2023-04-15T06:39:58;11.60;;;8.70;;
1262;SDS011;62267;50.112;8.704;2023-04-15T06:42:25;12.50;;;9.57;;
1262;SDS011;62267;50.112;8.704;2023-04-15T06:44:52;12.97;;;9.60;;
1262;SDS011;62267;50.112;8.704;2023-04-15T06:47:21;13.90;;;11.20;;
1262;SDS011;62267;50.112;8.704;2023-04-15T06:49:48;11.47;;;10.30;;
1262;SDS011;62267;50.112;8.704;2023-04-15T06:52:16;10.40;;;9.37;;
1262;SDS011;62267;50.112;8.704;2023-04-15T06:54:43;10.10;;;9.10;;
1262;SDS011;62267;50.112;8.704;2023-04-15T06:57:11;11.57;;;9.83;;
1262;SDS011;62267;50.112;8.704;2023-04-15T06:59:38;12.23;;;9.37;;
1262;SDS011;62267;50.112;8.704;2023-04-15T07:02:05;12.53;;;9.00;;
1262;SDS011;62267;50.112;8.704;2023-04-15T07:04:36;13.20;;;10.70;;
1262;SDS011;62267;50.112;8.704;2023-04-15T07:07:03;11.70;;;10.50;;
1262;SDS011;62267;50.112;8.704;2023-04-15T07:09:33;10.67;;;8.80;;
1262;SDS011;62267;50.112;8.704;2023-04-15T07:12:03;11.87;;;9.03;;
1262;SDS011;62267;50.112;8.704;2023-04-15T07:14:32;11.07;;;9.97;;
1262;SDS011;62267;50.112;8.704;2023-04-15T07:17:02;13.30;;;10.53;;
1262;SDS011;62267;50.112;8.704;2023-04-15T07:19:30;12.57;;;9.47;;
1262;SDS011;62267;50.112;8.704;2023-04-15T07:21:57;12.13;;;9.47;;
1262;SDS011;62267;50.112;8.704;2023-04-15T07:24:24;12.37;;;9.50;;
1262;SDS011;62267;50.112;8.704;2023-04-15T07:26:55;12.43;;;9.40;;
1262;SDS011;62267;50.112;8.704;2023-04-15T07:29:26;11.50;;;8.77;;
1262;SDS011;62267;50.112;8.704;2023-04-15T07:31:54;11.87;;;9.30;;
1262;SDS011;62267;50.112;8.704;2023-04-15T07:34:23;10.70;;;9.20;;
1262;SDS011;62267;50.112;8.704;2023-04-15T07:36:51;10.83;;;9.20;;
1262;SDS011;62267;50.112;8.704;2023-04-15T07:39:18;10.40;;;8.70;;
1262;SDS011;62267;50.112;8.704;2023-04-15T07:41:45;12.60;;;10.03;;
1262;SDS011;62267;50.112;8.704;2023-04-15T07:44:14;13.43;;;8.83;;
1262;SDS011;62267;50.112;8.704;2023-04-15T07:46:41;14.20;;;9.93;;
1262;SDS011;62267;50.112;8.704;2023-04-15T07:49:08;12.23;;;8.73;;
1262;SDS011;62267;50.112;8.704;2023-04-15T07:51:36;12.90;;;10.30;;
1262;SDS011;62267;50.112;8.704;2023-04-15T07:54:03;11.63;;;9.37;;
1262;SDS011;62267;50.112;8.704;2023-04-15T07:56:30;13.97;;;10.43;;
1262;SDS011;62267;50.112;8.704;2023-04-15T07:58:58;13.07;;;8.33;;
1262;SDS011;62267;50.112;8.704;2023-04-15T08:01:28;11.57;;;9.40;;
1262;SDS011;62267;50.112;8.704;2023-04-15T08:03:55;12.37;;;9.80;;
1262;SDS011;62267;50.112;8.704;2023-04-15T08:06:23;12.10;;;9.90;;
1262;SDS011;62267;50.112;8.704;2023-04-15T08:08:50;13.50;;;10.27;;
1262;SDS011;62267;50.112;8.704;2023-04-15T08:11:18;10.70;;;8.63;;
1262;SDS011;62267;50.112;8.704;2023-04-15T08:13:45;11.23;;;9.17;;
1262;SDS011;62267;50.112;8.704;2023-04-15T08:18:40;10.53;;;8.90;;
1262;SDS011;62267;50.112;8.704;2023-04-15T08:21:07;13.53;;;10.10;;
1262;SDS011;62267;50.112;8.704;2023-04-15T08:23:34;10.97;;;9.40;;
1262;SDS011;62267;50.112;8.704;2023-04-15T08:26:02;9.40;;;8.43;;
1262;SDS011;62267;50.112;8.704;2023-04-15T08:28:29;11.43;;;9.33;;
1262;SDS011;62267;50.112;8.704;2023-04-15T08:30:56;10.13;;;9.03;;
1262;SDS011;62267;50.112;8.704;2023-04-15T08:33:24;8.83;;;7.93;;
1262;SDS011;62267;50.112;8.704;2023-04-15T08:35:51;12.30;;;8.03;;
1262;SDS011;62267;50.112;8.704;2023-04-15T08:38:18;10.23;;;8.37;;
1262;SDS011;62267;50.112;8.704;2023-04-15T08:40:46;10.30;;;7.73;;
1262;SDS011;62267;50.112;8.704;2023-04-15T08:43:20;8.20;;;7.30;;
1262;SDS011;62267;50.112;8.704;2023-04-15T08:45:52;8.07;;;7.20;;
1262;SDS011;62267;50.112;8.704;2023-04-15T08:48:19;7.53;;;6.20;;
1262;SDS011;62267;50.112;8.704;2023-04-15T08:50:49;6.50;;;5.90;;
1262;SDS011;62267;50.112;8.704;2023-04-15T08:53:17;10.17;;;7.70;;
1262;SDS011;62267;50.112;8.704;2023-04-15T08:55:44;10.20;;;6.93;;
1262;SDS011;62267;50.112;8.704;2023-04-15T08:58:12;7.30;;;6.60;;
1262;SDS011;62267;50.112;8.704;2023-04-15T09:00:40;8.10;;;6.57;;
1262;SDS011;62267;50.112;8.704;2023-04-15T09:03:08;8.60;;;6.50;;
1262;SDS011;62267;50.112;8.704;2023-04-15T09:05:36;9.20;;;7.37;;
1262;SDS011;62267;50.112;8.704;2023-04-15T09:08:04;11.33;;;6.70;;
1262;SDS011;62267;50.112;8.704;2023-04-15T09:10:32;7.40;;;6.40;;
1262;SDS011;62267;50.112;8.704;2023-04-15T09:12:59;6.23;;;5.37;;
1262;SDS011;62267;50.112;8.704;2023-04-15T09:15:28;5.80;;;5.30;;
1262;SDS011;62267;50.112;8.704;2023-04-15T09:17:57;10.23;;;5.33;;
1262;SDS011;62267;50.112;8.704;2023-04-15T09:20:25;9.10;;;5.40;;
1262;SDS011;62267;50.112;8.704;2023-04-15T09:22:52;5.70;;;5.10;;
1262;SDS011;62267;50.112;8.704;2023-04-15T09:27:51;6.97;;;6.30;;
1262;SDS011;62267;50.112;8.704;2023-04-15T09:30:19;6.10;;;5.20;;
1262;SDS011;62267;50.112;8.704;2023-04-15T09:32:53;5.60;;;5.10;;
1262;SDS011;62267;50.112;8.704;2023-04-15T09:35:22;5.67;;;5.27;;
1262;SDS011;62267;50.112;8.704;2023-04-15T09:37:50;6.70;;;5.40;;
1262;SDS011;62267;50.112;8.704;2023-04-15T09:40:40;7.80;;;7.10;;
1262;SDS011;62267;50.112;8.704;2023-04-15T09:43:09;5.10;;;4.73;;
1262;SDS011;62267;50.112;8.704;2023-04-15T09:45:40;5.90;;;5.30;;
1262;SDS011;62267;50.112;8.704;2023-04-15T09:48:22;6.10;;;5.00;;
1262;SDS011;62267;50.112;8.704;2023-04-15T09:50:52;5.43;;;4.93;;
1262;SDS011;62267;50.112;8.704;2023-04-15T09:53:20;5.33;;;4.83;;
1262;SDS011;62267;50.112;8.704;2023-04-15T09:55:49;5.47;;;4.97;;
1262;SDS011;62267;50.112;8.704;2023-04-15T09:58:17;6.53;;;4.90;;
1262;SDS011;62267;50.112;8.704;2023-04-15T10:00:47;5.20;;;4.70;;
1262;SDS011;62267;50.112;8.704;2023-04-15T10:03:22;8.07;;;5.40;;
1262;SDS011;62267;50.112;8.704;2023-04-15T10:05:50;6.63;;;4.80;;
1262;SDS011;62267;50.112;8.704;2023-04-15T10:08:19;5.70;;;5.13;;
1262;SDS011;62267;50.112;8.704;2023-04-15T10:10:47;5.93;;;5.23;;
1262;SDS011;62267;50.112;8.704;2023-04-15T10:13:17;6.17;;;5.63;;
1262;SDS011;62267;50.112;8.704;2023-04-15T10:15:49;5.93;;;5.33;;
1262;SDS011;62267;50.112;8.704;2023-04-15T10:18:18;4.43;;;4.03;;
1262;SDS011;62267;50.112;8.704;2023-04-15T10:20:47;5.03;;;4.63;;
1262;SDS011;62267;50.112;8.704;2023-04-15T10:23:14;5.03;;;4.60;;
1262;SDS011;62267;50.112;8.704;2023-04-15T10:25:43;5.17;;;4.77;;
1262;SDS011;62267;50.112;8.704;2023-04-15T10:28:12;6.00;;;5.13;;
1262;SDS011;62267;50.112;8.704;2023-04-15T10:30:40;5.17;;;4.67;;
1262;SDS011;62267;50.112;8.704;2023-04-15T10:33:08;4.70;;;4.30;;
1262;SDS011;62267;50.112;8.704;2023-04-15T10:35:36;5.00;;;4.60;;
1262;SDS011;62267;50.112;8.704;2023-04-15T10:40:50;6.23;;;5.00;;
1262;SDS011;62267;50.112;8.704;2023-04-15T10:43:24;6.20;;;4.63;;
1262;SDS011;62267;50.112;8.704;2023-04-15T10:45:52;5.97;;;5.47;;
1262;SDS011;62267;50.112;8.704;2023-04-15T10:48:19;5.70;;;5.20;;
1262;SDS011;62267;50.112;8.704;2023-04-15T10:50:57;5.07;;;4.60;;
1262;SDS011;62267;50.112;8.704;2023-04-15T10:53:27;5.00;;;4.60;;
1262;SDS011;62267;50.112;8.704;2023-04-15T10:55:59;7.60;;;5.70;;
1262;SDS011;62267;50.112;8.704;2023-04-15T10:58:26;6.20;;;5.60;;
1262;SDS011;62267;50.112;8.704;2023-04-15T11:01:06;9.13;;;5.57;;
1262;SDS011;62267;50.112;8.704;2023-04-15T11:03:37;9.17;;;6.53;;
1262;SDS011;62267;50.112;8.704;2023-04-15T11:06:06;5.73;;;5.13;;
1262;SDS011;62267;50.112;8.704;2023-04-15T11:11:20;4.93;;;4.53;;
1262;SDS011;62267;50.112;8.704;2023-04-15T11:13:48;6.13;;;5.03;;
1262;SDS011;62267;50.112;8.704;2023-04-15T11:16:15;5.03;;;4.63;;
1262;SDS011;62267;50.112;8.704;2023-04-15T11:18:52;5.40;;;5.00;;
1262;SDS011;62267;50.112;8.704;2023-04-15T11:21:19;7.77;;;5.73;;
1262;SDS011;62267;50.112;8.704;2023-04-15T11:23:51;8.60;;;7.03;;
1262;SDS011;62267;50.112;8.704;2023-04-15T11:26:18;5.43;;;4.93;;
1262;SDS011;62267;50.112;8.704;2023-04-15T11:28:46;8.23;;;7.07;;
1262;SDS011;62267;50.112;8.704;2023-04-15T11:31:17;5.87;;;5.37;;
1262;SDS011;62267;50.112;8.704;2023-04-15T11:33:55;5.07;;;4.67;;
1262;SDS011;62267;50.112;8.704;2023-04-15T11:36:26;5.83;;;5.40;;
1262;SDS011;62267;50.112;8.704;2023-04-15T11:38:54;5.40;;;4.90;;
1262;SDS011;62267;50.112;8.704;2023-04-15T11:41:21;5.43;;;4.93;;
1262;SDS011;62267;50.112;8.704;2023-04-15T11:43:50;6.10;;;5.50;;
1262;SDS011;62267;50.112;8.704;2023-04-15T11:46:17;5.63;;;5.10;;
1262;SDS011;62267;50.112;8.704;2023-04-15T11:48:45;5.93;;;5.43;;
1262;SDS011;62267;50.112;8.704;2023-04-15T11:51:13;5.67;;;5.17;;
1262;SDS011;62267;50.112;8.704;2023-04-15T11:56:08;10.40;;;7.23;;
1262;SDS011;62267;50.112;8.704;2023-04-15T11:58:36;8.13;;;5.33;;
1262;SDS011;62267;50.112;8.704;2023-04-15T12:01:04;5.60;;;4.97;;
1262;SDS011;62267;50.112;8.704;2023-04-15T12:06:03;7.00;;;5.30;;
1262;SDS011;62267;50.112;8.704;2023-04-15T12:08:46;5.63;;;5.13;;
1262;SDS011;62267;50.112;8.704;2023-04-15T12:11:14;5.80;;;5.30;;
1262;SDS011;62267;50.112;8.704;2023-04-15T12:13:44;5.77;;;5.27;;
1262;SDS011;62267;50.112;8.704;2023-04-15T12:16:12;7.23;;;5.37;;
1262;SDS011;62267;50.112;8.704;2023-04-15T12:18:39;5.30;;;4.80;;
1262;SDS011;62267;50.112;8.704;2023-04-15T12:21:10;5.77;;;5.20;;
1262;SDS011;62267;50.112;8.704;2023-04-15T12:23:48;7.67;;;6.13;;
1262;SDS011;62267;50.112;8.704;2023-04-15T12:26:16;5.97;;;5.47;;
1262;SDS011;62267;50.112;8.704;2023-04-15T12:28:44;5.87;;;5.30;;
1262;SDS011;62267;50.112;8.704;2023-04-15T12:31:12;6.53;;;5.83;;
1262;SDS011;62267;50.112;8.704;2023-04-15T12:33:40;5.37;;;4.87;;
1262;SDS011;62267;50.112;8.704;2023-04-15T12:36:07;9.93;;;7.70;;
1262;SDS011;62267;50.112;8.704;2023-04-15T12:38:35;5.60;;;5.10;;
1262;SDS011;62267;50.112;8.704;2023-04-15T12:41:04;5.63;;;5.03;;
1262;SDS011;62267;50.112;8.704;2023-04-15T12:43:31;7.00;;;4.80;;
1262;SDS011;62267;50.112;8.704;2023-04-15T12:45:58;6.50;;;5.80;;
1262;SDS011;62267;50.112;8.704;2023-04-15T12:48:26;7.03;;;5.50;;
1262;SDS011;62267;50.112;8.704;2023-04-15T12:50:54;6.47;;;5.53;;
1262;SDS011;62267;50.112;8.704;2023-04-15T12:53:21;6.67;;;5.33;;
1262;SDS011;62267;50.112;8.704;2023-04-15T12:55:49;5.53;;;4.67;;
1262;SDS011;62267;50.112;8.704;2023-04-15T12:58:19;7.20;;;4.10;;
1262;SDS011;62267;50.112;8.704;2023-04-15T13:00:47;4.80;;;4.40;;
1262;SDS011;62267;50.112;8.704;2023-04-15T13:03:18;6.07;;;5.03;;
1262;SDS011;62267;50.112;8.704;2023-04-15T13:05:45;4.63;;;4.23;;
1262;SDS011;62267;50.112;8.704;2023-04-15T13:08:13;3.80;;;3.50;;
1262;SDS011;62267;50.112;8.704;2023-04-15T13:10:41;3.23;;;3.03;;
1262;SDS011;62267;50.112;8.704;2023-04-15T13:13:08;3.73;;;3.43;;
1262;SDS011;62267;50.112;8.704;2023-04-15T13:15:36;6.30;;;3.30;;
1262;SDS011;62267;50.112;8.704;2023-04-15T13:18:04;2.77;;;2.57;;
1262;SDS011;62267;50.112;8.704;2023-04-15T13:20:31;4.53;;;3.80;;
1262;SDS011;62267;50.112;8.704;2023-04-15T13:23:00;4.03;;;3.73;;
1262;SDS011;62267;50.112;8.704;2023-04-15T13:25:28;3.60;;;3.30;;
1262;SDS011;62267;50.112;8.704;2023-04-15T13:27:55;3.77;;;3.47;;
1262;SDS011;62267;50.112;8.704;2023-04-15T13:30:23;3.07;;;2.83;;
1262;SDS011;62267;50.112;8.704;2023-04-15T13:32:50;2.70;;;2.50;;
1262;SDS011;62267;50.112;8.704;2023-04-15T13:35:21;5.40;;;3.00;;
1262;SDS011;62267;50.112;8.704;2023-04-15T13:37:48;2.43;;;2.23;;
1262;SDS011;62267;50.112;8.704;2023-04-15T13:40:15;2.10;;;1.90;;
1262;SDS011;62267;50.112;8.704;2023-04-15T13:42:42;2.17;;;2.07;;
1262;SDS011;62267;50.112;8.704;2023-04-15T13:45:10;2.00;;;1.90;;
1262;SDS011;62267;50.112;8.704;2023-04-15T13:47:37;3.20;;;3.00;;
1262;SDS011;62267;50.112;8.704;2023-04-15T13:50:04;2.07;;;1.97;;
1262;SDS011;62267;50.112;8.704;2023-04-15T13:52:32;1.80;;;1.70;;
1262;SDS011;62267;50.112;8.704;2023-04-15T13:55:00;1.90;;;1.80;;
1262;SDS011;62267;50.112;8.704;2023-04-15T13:57:45;2.60;;;2.40;;
1262;SDS011;62267;50.112;8.704;2023-04-15T14:00:13;5.20;;;4.60;;
1262;SDS011;62267;50.112;8.704;2023-04-15T14:02:40;2.50;;;2.30;;
1262;SDS011;62267;50.112;8.704;2023-04-15T14:05:08;2.30;;;2.20;;
1262;SDS011;62267;50.112;8.704;2023-04-15T14:07:37;2.00;;;1.90;;
1262;SDS011;62267;50.112;8.704;2023-04-15T14:10:05;2.10;;;2.00;;
1262;SDS011;62267;50.112;8.704;2023-04-15T14:12:32;3.07;;;2.40;;
1262;SDS011;62267;50.112;8.704;2023-04-15T14:15:00;2.60;;;2.40;;
1262;SDS011;62267;50.112;8.704;2023-04-15T14:17:27;2.67;;;2.47;;
1262;SDS011;62267;50.112;8.704;2023-04-15T14:19:56;2.90;;;2.70;;
1262;SDS011;62267;50.112;8.704;2023-04-15T14:22:23;2.80;;;2.60;;
1262;SDS011;62267;50.112;8.704;2023-04-15T14:24:52;3.07;;;2.87;;
1262;SDS011;62267;50.112;8.704;2023-04-15T14:27:21;3.17;;;2.97;;
1262;SDS011;62267;50.112;8.704;2023-04-15T14:29:49;3.40;;;3.10;;
1262;SDS011;62267;50.112;8.704;2023-04-15T14:32:18;3.23;;;2.87;;
1262;SDS011;62267;50.112;8.704;2023-04-15T14:34:46;2.77;;;2.57;;
1262;SDS011;62267;50.112;8.704;2023-04-15T14:37:13;3.10;;;2.90;;
1262;SDS011;62267;50.112;8.704;2023-04-15T14:39:41;2.80;;;2.60;;
1262;SDS011;62267;50.112;8.704;2023-04-15T14:42:08;3.20;;;3.00;;
1262;SDS011;62267;50.112;8.704;2023-04-15T14:44:36;2.93;;;2.73;;
1262;SDS011;62267;50.112;8.704;2023-04-15T14:47:03;3.30;;;3.10;;
1262;SDS011;62267;50.112;8.704;2023-04-15T14:49:33;2.90;;;2.70;;
1262;SDS011;62267;50.112;8.704;2023-04-15T14:52:00;3.13;;;2.83;;
1262;SDS011;62267;50.112;8.704;2023-04-15T14:54:28;3.30;;;3.00;;
1262;SDS011;62267;50.112;8.704;2023-04-15T14:56:56;3.50;;;3.20;;
1262;SDS011;62267;50.112;8.704;2023-04-15T14:59:23;4.03;;;2.80;;
1262;SDS011;62267;50.112;8.704;2023-04-15T15:01:51;2.97;;;2.67;;
1262;SDS011;62267;50.112;8.704;2023-04-15T15:04:19;4.77;;;3.47;;
1262;SDS011;62267;50.112;8.704;2023-04-15T15:06:47;3.10;;;2.90;;
1262;SDS011;62267;50.112;8.704;2023-04-15T15:09:14;3.57;;;3.27;;
1262;SDS011;62267;50.112;8.704;2023-04-15T15:11:42;4.00;;;3.63;;
1262;SDS011;62267;50.112;8.704;2023-04-15T15:14:09;2.70;;;2.53;;
1262;SDS011;62267;50.112;8.704;2023-04-15T15:16:36;3.83;;;3.53;;
1262;SDS011;62267;50.112;8.704;2023-04-15T15:19:04;6.80;;;3.30;;